sensor_id;sensor_type;location;lat;lon;timestamp;P1;durP1;ratioP1;P2;durP2;ratioP2
7783;SDS011;19359;51.402;6.778;2023-02-02T00:00:50;15.25;;;2.70;;
7783;SDS011;19359;51.402;6.778;2023-02-02T00:03:17;11.32;;;1.75;;
7783;SDS011;19359;51.402;6.778;2023-02-02T00:05:44;10.27;;;2.20;;
7783;SDS011;19359;51.402;6.778;2023-02-02T00:08:13;18.45;;;2.55;;
7783;SDS011;19359;51.402;6.778;2023-02-02T00:10:40;12.25;;;2.28;;
7783;SDS011;19359;51.402;6.778;2023-02-02T00:13:07;10.38;;;2.38;;
7783;SDS011;19359;51.402;6.778;2023-02-02T00:15:34;15.10;;;1.92;;
7783;SDS011;19359;51.402;6.778;2023-02-02T00:18:01;16.55;;;2.05;;
7783;SDS011;19359;51.402;6.778;2023-02-02T00:20:28;6.88;;;2.38;;
7783;SDS011;19359;51.402;6.778;2023-02-02T00:22:55;6.65;;;1.75;;
7783;SDS011;19359;51.402;6.778;2023-02-02T00:25:23;11.25;;;1.63;;
7783;SDS011;19359;51.402;6.778;2023-02-02T00:27:50;8.07;;;2.08;;
7783;SDS011;19359;51.402;6.778;2023-02-02T00:30:17;8.63;;;1.80;;
7783;SDS011;19359;51.402;6.778;2023-02-02T00:32:44;12.73;;;1.50;;
7783;SDS011;19359;51.402;6.778;2023-02-02T00:35:12;16.63;;;3.15;;
7783;SDS011;19359;51.402;6.778;2023-02-02T00:37:39;9.35;;;2.13;;
7783;SDS011;19359;51.402;6.778;2023-02-02T00:40:07;13.98;;;2.40;;
7783;SDS011;19359;51.402;6.778;2023-02-02T00:42:36;18.48;;;2.42;;
7783;SDS011;19359;51.402;6.778;2023-02-02T00:45:03;13.93;;;3.30;;
7783;SDS011;19359;51.402;6.778;2023-02-02T00:47:41;6.65;;;1.58;;
7783;SDS011;19359;51.402;6.778;2023-02-02T00:50:10;8.02;;;1.48;;
7783;SDS011;19359;51.402;6.778;2023-02-02T00:52:38;15.68;;;4.68;;
7783;SDS011;19359;51.402;6.778;2023-02-02T00:55:05;16.95;;;2.97;;
7783;SDS011;19359;51.402;6.778;2023-02-02T00:57:33;12.40;;;3.55;;
7783;SDS011;19359;51.402;6.778;2023-02-02T01:00:01;13.27;;;2.47;;
7783;SDS011;19359;51.402;6.778;2023-02-02T01:02:28;6.68;;;2.08;;
7783;SDS011;19359;51.402;6.778;2023-02-02T01:04:55;18.70;;;2.20;;
7783;SDS011;19359;51.402;6.778;2023-02-02T01:07:22;10.27;;;2.70;;
7783;SDS011;19359;51.402;6.778;2023-02-02T01:09:49;6.20;;;2.85;;
7783;SDS011;19359;51.402;6.778;2023-02-02T01:12:16;25.27;;;3.38;;
7783;SDS011;19359;51.402;6.778;2023-02-02T01:14:43;12.73;;;2.35;;
7783;SDS011;19359;51.402;6.778;2023-02-02T01:17:11;11.05;;;2.78;;
7783;SDS011;19359;51.402;6.778;2023-02-02T01:19:38;19.42;;;3.75;;
7783;SDS011;19359;51.402;6.778;2023-02-02T01:22:06;17.40;;;3.25;;
7783;SDS011;19359;51.402;6.778;2023-02-02T01:24:33;14.15;;;3.40;;
7783;SDS011;19359;51.402;6.778;2023-02-02T01:27:00;16.27;;;3.20;;
7783;SDS011;19359;51.402;6.778;2023-02-02T01:29:26;11.65;;;2.92;;
7783;SDS011;19359;51.402;6.778;2023-02-02T01:31:53;19.17;;;3.55;;
7783;SDS011;19359;51.402;6.778;2023-02-02T01:34:22;13.48;;;3.85;;
7783;SDS011;19359;51.402;6.778;2023-02-02T01:36:48;14.88;;;3.08;;
7783;SDS011;19359;51.402;6.778;2023-02-02T01:39:15;19.75;;;3.45;;
7783;SDS011;19359;51.402;6.778;2023-02-02T01:41:42;21.95;;;4.28;;
7783;SDS011;19359;51.402;6.778;2023-02-02T01:47:13;20.45;;;3.00;;
7783;SDS011;19359;51.402;6.778;2023-02-02T01:49:42;25.58;;;2.88;;
7783;SDS011;19359;51.402;6.778;2023-02-02T01:52:10;12.13;;;3.38;;
7783;SDS011;19359;51.402;6.778;2023-02-02T01:54:39;18.60;;;3.45;;
7783;SDS011;19359;51.402;6.778;2023-02-02T01:57:12;14.18;;;2.90;;
7783;SDS011;19359;51.402;6.778;2023-02-02T01:59:42;13.90;;;3.65;;
7783;SDS011;19359;51.402;6.778;2023-02-02T02:02:10;16.60;;;2.95;;
7783;SDS011;19359;51.402;6.778;2023-02-02T02:04:38;18.58;;;3.45;;
7783;SDS011;19359;51.402;6.778;2023-02-02T02:07:07;13.88;;;2.60;;
7783;SDS011;19359;51.402;6.778;2023-02-02T02:09:34;11.32;;;2.25;;
7783;SDS011;19359;51.402;6.778;2023-02-02T02:12:02;16.88;;;3.15;;
7783;SDS011;19359;51.402;6.778;2023-02-02T02:14:29;12.60;;;3.38;;
7783;SDS011;19359;51.402;6.778;2023-02-02T02:17:19;16.50;;;3.45;;
7783;SDS011;19359;51.402;6.778;2023-02-02T02:20:02;19.25;;;3.53;;
7783;SDS011;19359;51.402;6.778;2023-02-02T02:26:38;12.73;;;3.17;;
7783;SDS011;19359;51.402;6.778;2023-02-02T02:35:01;14.23;;;4.30;;
7783;SDS011;19359;51.402;6.778;2023-02-02T02:37:35;14.68;;;2.85;;
7783;SDS011;19359;51.402;6.778;2023-02-02T02:40:07;11.98;;;3.13;;
7783;SDS011;19359;51.402;6.778;2023-02-02T02:42:42;14.40;;;2.40;;
7783;SDS011;19359;51.402;6.778;2023-02-02T02:45:11;21.13;;;4.35;;
7783;SDS011;19359;51.402;6.778;2023-02-02T02:47:40;19.83;;;3.15;;
7783;SDS011;19359;51.402;6.778;2023-02-02T02:50:09;20.33;;;3.65;;
7783;SDS011;19359;51.402;6.778;2023-02-02T02:52:36;21.05;;;3.72;;
7783;SDS011;19359;51.402;6.778;2023-02-02T02:55:04;8.10;;;3.05;;
7783;SDS011;19359;51.402;6.778;2023-02-02T02:57:36;11.65;;;2.42;;
7783;SDS011;19359;51.402;6.778;2023-02-02T03:00:28;23.40;;;3.70;;
7783;SDS011;19359;51.402;6.778;2023-02-02T03:03:19;10.45;;;2.85;;
7783;SDS011;19359;51.402;6.778;2023-02-02T03:05:54;10.48;;;2.97;;
7783;SDS011;19359;51.402;6.778;2023-02-02T03:08:27;8.90;;;2.70;;
7783;SDS011;19359;51.402;6.778;2023-02-02T03:10:59;14.25;;;4.30;;
7783;SDS011;19359;51.402;6.778;2023-02-02T03:13:27;18.65;;;3.03;;
7783;SDS011;19359;51.402;6.778;2023-02-02T03:15:55;15.35;;;2.30;;
7783;SDS011;19359;51.402;6.778;2023-02-02T03:18:24;9.15;;;2.42;;
7783;SDS011;19359;51.402;6.778;2023-02-02T03:20:53;14.43;;;3.15;;
7783;SDS011;19359;51.402;6.778;2023-02-02T03:23:20;8.00;;;2.88;;
7783;SDS011;19359;51.402;6.778;2023-02-02T03:25:47;16.35;;;3.10;;
7783;SDS011;19359;51.402;6.778;2023-02-02T03:28:14;23.80;;;4.35;;
7783;SDS011;19359;51.402;6.778;2023-02-02T03:30:42;9.85;;;3.60;;
7783;SDS011;19359;51.402;6.778;2023-02-02T03:33:11;10.65;;;2.50;;
7783;SDS011;19359;51.402;6.778;2023-02-02T03:35:40;11.98;;;1.80;;
7783;SDS011;19359;51.402;6.778;2023-02-02T03:38:07;24.15;;;3.22;;
7783;SDS011;19359;51.402;6.778;2023-02-02T03:40:34;10.35;;;2.38;;
7783;SDS011;19359;51.402;6.778;2023-02-02T03:43:00;18.80;;;5.35;;
7783;SDS011;19359;51.402;6.778;2023-02-02T03:45:27;10.60;;;3.65;;
7783;SDS011;19359;51.402;6.778;2023-02-02T03:47:56;14.43;;;3.50;;
7783;SDS011;19359;51.402;6.778;2023-02-02T03:50:23;17.42;;;3.45;;
7783;SDS011;19359;51.402;6.778;2023-02-02T03:52:52;26.17;;;3.20;;
7783;SDS011;19359;51.402;6.778;2023-02-02T03:55:19;15.02;;;3.97;;
7783;SDS011;19359;51.402;6.778;2023-02-02T03:57:45;14.85;;;3.63;;
7783;SDS011;19359;51.402;6.778;2023-02-02T04:00:12;14.40;;;3.67;;
7783;SDS011;19359;51.402;6.778;2023-02-02T04:02:40;14.38;;;4.13;;
7783;SDS011;19359;51.402;6.778;2023-02-02T04:05:07;9.40;;;3.65;;
7783;SDS011;19359;51.402;6.778;2023-02-02T04:07:34;12.38;;;3.42;;
7783;SDS011;19359;51.402;6.778;2023-02-02T04:10:02;11.32;;;3.05;;
7783;SDS011;19359;51.402;6.778;2023-02-02T04:12:29;16.98;;;4.32;;
7783;SDS011;19359;51.402;6.778;2023-02-02T04:14:56;19.33;;;3.80;;
7783;SDS011;19359;51.402;6.778;2023-02-02T04:17:22;10.52;;;4.28;;
7783;SDS011;19359;51.402;6.778;2023-02-02T04:19:49;19.23;;;3.83;;
7783;SDS011;19359;51.402;6.778;2023-02-02T04:22:20;10.80;;;3.25;;
7783;SDS011;19359;51.402;6.778;2023-02-02T04:24:47;18.55;;;3.17;;
7783;SDS011;19359;51.402;6.778;2023-02-02T04:27:15;16.63;;;3.13;;
7783;SDS011;19359;51.402;6.778;2023-02-02T04:29:42;15.77;;;3.00;;
7783;SDS011;19359;51.402;6.778;2023-02-02T04:32:09;22.80;;;3.13;;
7783;SDS011;19359;51.402;6.778;2023-02-02T04:34:36;11.38;;;2.53;;
7783;SDS011;19359;51.402;6.778;2023-02-02T04:37:02;11.85;;;1.95;;
7783;SDS011;19359;51.402;6.778;2023-02-02T04:39:29;15.75;;;3.00;;
7783;SDS011;19359;51.402;6.778;2023-02-02T04:41:56;13.43;;;3.63;;
7783;SDS011;19359;51.402;6.778;2023-02-02T04:44:24;7.25;;;2.25;;
7783;SDS011;19359;51.402;6.778;2023-02-02T04:46:51;7.00;;;2.45;;
7783;SDS011;19359;51.402;6.778;2023-02-02T04:49:17;20.65;;;3.78;;
7783;SDS011;19359;51.402;6.778;2023-02-02T04:51:45;17.02;;;2.55;;
7783;SDS011;19359;51.402;6.778;2023-02-02T04:54:14;13.43;;;2.83;;
7783;SDS011;19359;51.402;6.778;2023-02-02T04:56:41;12.88;;;3.40;;
7783;SDS011;19359;51.402;6.778;2023-02-02T04:59:07;17.42;;;3.50;;
7783;SDS011;19359;51.402;6.778;2023-02-02T05:01:35;15.50;;;3.40;;
7783;SDS011;19359;51.402;6.778;2023-02-02T05:04:02;13.27;;;3.03;;
7783;SDS011;19359;51.402;6.778;2023-02-02T05:06:29;15.45;;;2.50;;
7783;SDS011;19359;51.402;6.778;2023-02-02T05:08:56;15.80;;;2.80;;
7783;SDS011;19359;51.402;6.778;2023-02-02T05:11:23;7.35;;;2.63;;
7783;SDS011;19359;51.402;6.778;2023-02-02T05:13:51;15.70;;;2.42;;
7783;SDS011;19359;51.402;6.778;2023-02-02T05:16:18;16.33;;;2.67;;
7783;SDS011;19359;51.402;6.778;2023-02-02T05:18:48;13.43;;;4.90;;
7783;SDS011;19359;51.402;6.778;2023-02-02T05:21:16;17.80;;;4.65;;
7783;SDS011;19359;51.402;6.778;2023-02-02T05:23:43;11.25;;;3.55;;
7783;SDS011;19359;51.402;6.778;2023-02-02T05:26:10;16.58;;;3.58;;
7783;SDS011;19359;51.402;6.778;2023-02-02T05:28:40;11.40;;;3.78;;
7783;SDS011;19359;51.402;6.778;2023-02-02T05:31:07;18.88;;;3.80;;
7783;SDS011;19359;51.402;6.778;2023-02-02T05:33:34;16.48;;;3.42;;
7783;SDS011;19359;51.402;6.778;2023-02-02T05:36:02;19.83;;;3.58;;
7783;SDS011;19359;51.402;6.778;2023-02-02T05:38:29;14.02;;;3.03;;
7783;SDS011;19359;51.402;6.778;2023-02-02T05:40:56;13.18;;;3.95;;
7783;SDS011;19359;51.402;6.778;2023-02-02T05:43:23;9.93;;;2.67;;
7783;SDS011;19359;51.402;6.778;2023-02-02T05:45:50;13.57;;;2.85;;
7783;SDS011;19359;51.402;6.778;2023-02-02T05:48:17;10.73;;;2.72;;
7783;SDS011;19359;51.402;6.778;2023-02-02T05:50:44;15.27;;;3.58;;
7783;SDS011;19359;51.402;6.778;2023-02-02T05:53:15;15.70;;;3.78;;
7783;SDS011;19359;51.402;6.778;2023-02-02T05:55:42;18.10;;;4.40;;
7783;SDS011;19359;51.402;6.778;2023-02-02T05:58:09;12.40;;;2.30;;
7783;SDS011;19359;51.402;6.778;2023-02-02T06:00:36;25.63;;;4.57;;
7783;SDS011;19359;51.402;6.778;2023-02-02T06:03:03;13.98;;;3.17;;
7783;SDS011;19359;51.402;6.778;2023-02-02T06:05:30;10.48;;;2.00;;
7783;SDS011;19359;51.402;6.778;2023-02-02T06:07:57;16.98;;;3.45;;
7783;SDS011;19359;51.402;6.778;2023-02-02T06:10:25;11.20;;;3.00;;
7783;SDS011;19359;51.402;6.778;2023-02-02T06:12:51;13.18;;;2.67;;
7783;SDS011;19359;51.402;6.778;2023-02-02T06:15:18;4.85;;;1.30;;
7783;SDS011;19359;51.402;6.778;2023-02-02T06:17:45;8.05;;;2.35;;
7783;SDS011;19359;51.402;6.778;2023-02-02T06:20:11;11.52;;;1.88;;
7783;SDS011;19359;51.402;6.778;2023-02-02T06:22:38;19.38;;;3.33;;
7783;SDS011;19359;51.402;6.778;2023-02-02T06:25:07;15.77;;;2.50;;
7783;SDS011;19359;51.402;6.778;2023-02-02T06:27:35;14.40;;;2.22;;
7783;SDS011;19359;51.402;6.778;2023-02-02T06:30:02;15.63;;;4.22;;
7783;SDS011;19359;51.402;6.778;2023-02-02T06:32:29;13.15;;;4.25;;
7783;SDS011;19359;51.402;6.778;2023-02-02T06:34:56;14.32;;;3.28;;
7783;SDS011;19359;51.402;6.778;2023-02-02T06:37:22;9.60;;;2.95;;
7783;SDS011;19359;51.402;6.778;2023-02-02T06:39:49;10.65;;;2.83;;
7783;SDS011;19359;51.402;6.778;2023-02-02T06:42:16;8.85;;;2.17;;
7783;SDS011;19359;51.402;6.778;2023-02-02T06:44:44;15.75;;;2.25;;
7783;SDS011;19359;51.402;6.778;2023-02-02T06:47:10;10.77;;;2.65;;
7783;SDS011;19359;51.402;6.778;2023-02-02T06:49:37;6.70;;;2.42;;
7783;SDS011;19359;51.402;6.778;2023-02-02T06:52:04;8.60;;;2.95;;
7783;SDS011;19359;51.402;6.778;2023-02-02T06:54:31;10.90;;;3.45;;
7783;SDS011;19359;51.402;6.778;2023-02-02T06:56:58;13.23;;;2.70;;
7783;SDS011;19359;51.402;6.778;2023-02-02T06:59:25;18.13;;;2.95;;
7783;SDS011;19359;51.402;6.778;2023-02-02T07:01:57;19.27;;;3.08;;
7783;SDS011;19359;51.402;6.778;2023-02-02T07:04:27;19.60;;;3.38;;
7783;SDS011;19359;51.402;6.778;2023-02-02T07:06:59;14.02;;;3.97;;
7783;SDS011;19359;51.402;6.778;2023-02-02T07:09:26;19.98;;;4.35;;
7783;SDS011;19359;51.402;6.778;2023-02-02T07:11:53;13.02;;;3.72;;
7783;SDS011;19359;51.402;6.778;2023-02-02T07:14:20;12.20;;;3.63;;
7783;SDS011;19359;51.402;6.778;2023-02-02T07:16:47;11.98;;;3.92;;
7783;SDS011;19359;51.402;6.778;2023-02-02T07:19:15;22.08;;;5.32;;
7783;SDS011;19359;51.402;6.778;2023-02-02T07:21:41;13.35;;;4.32;;
7783;SDS011;19359;51.402;6.778;2023-02-02T07:24:08;12.20;;;4.22;;
7783;SDS011;19359;51.402;6.778;2023-02-02T07:26:35;16.65;;;4.78;;
7783;SDS011;19359;51.402;6.778;2023-02-02T07:29:03;15.95;;;3.50;;
7783;SDS011;19359;51.402;6.778;2023-02-02T07:31:30;10.52;;;4.30;;
7783;SDS011;19359;51.402;6.778;2023-02-02T07:33:57;13.55;;;3.38;;
7783;SDS011;19359;51.402;6.778;2023-02-02T07:36:25;7.68;;;3.38;;
7783;SDS011;19359;51.402;6.778;2023-02-02T07:38:52;13.65;;;2.50;;
7783;SDS011;19359;51.402;6.778;2023-02-02T07:41:19;15.00;;;4.03;;
7783;SDS011;19359;51.402;6.778;2023-02-02T07:43:47;14.40;;;4.15;;
7783;SDS011;19359;51.402;6.778;2023-02-02T07:46:14;8.57;;;4.03;;
7783;SDS011;19359;51.402;6.778;2023-02-02T07:48:42;16.33;;;3.95;;
7783;SDS011;19359;51.402;6.778;2023-02-02T07:51:09;18.88;;;4.32;;
7783;SDS011;19359;51.402;6.778;2023-02-02T07:53:39;9.05;;;3.50;;
7783;SDS011;19359;51.402;6.778;2023-02-02T07:56:09;7.45;;;3.25;;
7783;SDS011;19359;51.402;6.778;2023-02-02T07:58:37;14.05;;;4.70;;
7783;SDS011;19359;51.402;6.778;2023-02-02T08:01:05;9.43;;;4.28;;
7783;SDS011;19359;51.402;6.778;2023-02-02T08:03:33;25.00;;;4.53;;
7783;SDS011;19359;51.402;6.778;2023-02-02T08:06:06;10.80;;;3.33;;
7783;SDS011;19359;51.402;6.778;2023-02-02T08:08:35;16.60;;;4.10;;
7783;SDS011;19359;51.402;6.778;2023-02-02T08:11:03;17.15;;;3.88;;
7783;SDS011;19359;51.402;6.778;2023-02-02T08:13:30;10.02;;;3.08;;
7783;SDS011;19359;51.402;6.778;2023-02-02T08:15:56;7.30;;;3.58;;
7783;SDS011;19359;51.402;6.778;2023-02-02T08:18:23;12.90;;;3.65;;
7783;SDS011;19359;51.402;6.778;2023-02-02T08:20:50;14.65;;;3.78;;
7783;SDS011;19359;51.402;6.778;2023-02-02T08:23:17;11.25;;;3.47;;
7783;SDS011;19359;51.402;6.778;2023-02-02T08:25:47;9.43;;;2.67;;
7783;SDS011;19359;51.402;6.778;2023-02-02T08:28:15;7.55;;;3.30;;
7783;SDS011;19359;51.402;6.778;2023-02-02T08:30:43;22.02;;;4.43;;
7783;SDS011;19359;51.402;6.778;2023-02-02T08:33:12;15.98;;;4.13;;
7783;SDS011;19359;51.402;6.778;2023-02-02T08:35:43;14.80;;;4.05;;
7783;SDS011;19359;51.402;6.778;2023-02-02T08:38:11;13.88;;;3.58;;
7783;SDS011;19359;51.402;6.778;2023-02-02T08:40:38;10.20;;;2.97;;
7783;SDS011;19359;51.402;6.778;2023-02-02T08:43:05;15.10;;;4.38;;
7783;SDS011;19359;51.402;6.778;2023-02-02T08:45:33;24.20;;;3.45;;
7783;SDS011;19359;51.402;6.778;2023-02-02T08:47:59;14.32;;;4.13;;
7783;SDS011;19359;51.402;6.778;2023-02-02T08:50:26;18.95;;;4.82;;
7783;SDS011;19359;51.402;6.778;2023-02-02T08:52:53;13.07;;;4.28;;
7783;SDS011;19359;51.402;6.778;2023-02-02T08:55:19;17.60;;;3.13;;
7783;SDS011;19359;51.402;6.778;2023-02-02T08:57:46;9.88;;;3.53;;
7783;SDS011;19359;51.402;6.778;2023-02-02T09:00:13;7.82;;;3.25;;
7783;SDS011;19359;51.402;6.778;2023-02-02T09:02:42;14.73;;;4.78;;
7783;SDS011;19359;51.402;6.778;2023-02-02T09:05:09;25.38;;;5.35;;
7783;SDS011;19359;51.402;6.778;2023-02-02T09:07:35;16.58;;;3.88;;
7783;SDS011;19359;51.402;6.778;2023-02-02T09:10:14;15.82;;;3.63;;
7783;SDS011;19359;51.402;6.778;2023-02-02T09:12:44;13.30;;;3.58;;
7783;SDS011;19359;51.402;6.778;2023-02-02T09:15:10;9.35;;;3.70;;
7783;SDS011;19359;51.402;6.778;2023-02-02T09:17:37;15.77;;;4.53;;
7783;SDS011;19359;51.402;6.778;2023-02-02T09:20:06;11.50;;;3.30;;
7783;SDS011;19359;51.402;6.778;2023-02-02T09:22:33;17.75;;;4.22;;
7783;SDS011;19359;51.402;6.778;2023-02-02T09:25:00;9.65;;;3.60;;
7783;SDS011;19359;51.402;6.778;2023-02-02T09:27:27;18.20;;;4.38;;
7783;SDS011;19359;51.402;6.778;2023-02-02T09:29:54;9.75;;;3.22;;
7783;SDS011;19359;51.402;6.778;2023-02-02T09:32:21;13.88;;;4.03;;
7783;SDS011;19359;51.402;6.778;2023-02-02T09:34:47;9.45;;;3.95;;
7783;SDS011;19359;51.402;6.778;2023-02-02T09:37:15;11.90;;;3.95;;
7783;SDS011;19359;51.402;6.778;2023-02-02T09:39:42;10.95;;;3.25;;
7783;SDS011;19359;51.402;6.778;2023-02-02T09:42:21;12.18;;;4.35;;
7783;SDS011;19359;51.402;6.778;2023-02-02T09:45:01;8.00;;;3.20;;
7783;SDS011;19359;51.402;6.778;2023-02-02T09:47:35;10.25;;;4.75;;
7783;SDS011;19359;51.402;6.778;2023-02-02T09:50:17;8.90;;;3.97;;
7783;SDS011;19359;51.402;6.778;2023-02-02T09:52:55;15.52;;;4.22;;
7783;SDS011;19359;51.402;6.778;2023-02-02T09:55:28;15.95;;;4.45;;
7783;SDS011;19359;51.402;6.778;2023-02-02T09:58:00;17.88;;;4.22;;
7783;SDS011;19359;51.402;6.778;2023-02-02T10:00:36;11.93;;;3.80;;
7783;SDS011;19359;51.402;6.778;2023-02-02T10:03:09;11.18;;;3.88;;
7783;SDS011;19359;51.402;6.778;2023-02-02T10:05:43;15.27;;;4.38;;
7783;SDS011;19359;51.402;6.778;2023-02-02T10:08:23;10.68;;;4.20;;
7783;SDS011;19359;51.402;6.778;2023-02-02T10:10:56;6.50;;;3.85;;
7783;SDS011;19359;51.402;6.778;2023-02-02T10:13:24;13.35;;;4.38;;
7783;SDS011;19359;51.402;6.778;2023-02-02T10:15:57;16.00;;;3.58;;
7783;SDS011;19359;51.402;6.778;2023-02-02T10:18:33;15.00;;;3.58;;
7783;SDS011;19359;51.402;6.778;2023-02-02T10:21:05;10.65;;;4.03;;
7783;SDS011;19359;51.402;6.778;2023-02-02T10:23:38;7.93;;;3.05;;
7783;SDS011;19359;51.402;6.778;2023-02-02T10:26:08;9.40;;;3.97;;
7783;SDS011;19359;51.402;6.778;2023-02-02T10:28:43;10.88;;;4.18;;
7783;SDS011;19359;51.402;6.778;2023-02-02T10:31:21;8.15;;;3.95;;
7783;SDS011;19359;51.402;6.778;2023-02-02T10:34:01;13.27;;;5.28;;
7783;SDS011;19359;51.402;6.778;2023-02-02T10:36:38;13.55;;;3.85;;
7783;SDS011;19359;51.402;6.778;2023-02-02T10:39:18;14.70;;;4.35;;
7783;SDS011;19359;51.402;6.778;2023-02-02T10:41:52;7.47;;;3.58;;
7783;SDS011;19359;51.402;6.778;2023-02-02T10:44:27;19.38;;;6.50;;
7783;SDS011;19359;51.402;6.778;2023-02-02T10:46:59;12.38;;;3.63;;
7783;SDS011;19359;51.402;6.778;2023-02-02T10:49:29;6.80;;;3.58;;
7783;SDS011;19359;51.402;6.778;2023-02-02T10:52:01;10.05;;;3.58;;
7783;SDS011;19359;51.402;6.778;2023-02-02T10:54:41;19.27;;;5.75;;
7783;SDS011;19359;51.402;6.778;2023-02-02T10:57:15;18.17;;;4.53;;
7783;SDS011;19359;51.402;6.778;2023-02-02T10:59:51;10.23;;;3.88;;
7783;SDS011;19359;51.402;6.778;2023-02-02T11:02:24;5.95;;;3.70;;
7783;SDS011;19359;51.402;6.778;2023-02-02T11:04:51;5.40;;;2.72;;
7783;SDS011;19359;51.402;6.778;2023-02-02T11:07:35;10.82;;;3.83;;
7783;SDS011;19359;51.402;6.778;2023-02-02T11:10:03;11.60;;;4.97;;
7783;SDS011;19359;51.402;6.778;2023-02-02T11:12:31;9.20;;;3.15;;
7783;SDS011;19359;51.402;6.778;2023-02-02T11:15:01;7.15;;;2.92;;
7783;SDS011;19359;51.402;6.778;2023-02-02T11:17:30;5.90;;;2.92;;
7783;SDS011;19359;51.402;6.778;2023-02-02T11:19:57;15.60;;;3.08;;
7783;SDS011;19359;51.402;6.778;2023-02-02T11:22:25;8.95;;;2.45;;
7783;SDS011;19359;51.402;6.778;2023-02-02T11:24:56;10.45;;;3.92;;
7783;SDS011;19359;51.402;6.778;2023-02-02T11:27:27;13.27;;;3.63;;
7783;SDS011;19359;51.402;6.778;2023-02-02T11:29:57;7.55;;;4.10;;
7783;SDS011;19359;51.402;6.778;2023-02-02T11:32:27;6.80;;;3.28;;
7783;SDS011;19359;51.402;6.778;2023-02-02T11:35:15;9.10;;;3.53;;
7783;SDS011;19359;51.402;6.778;2023-02-02T11:37:52;15.40;;;3.42;;
7783;SDS011;19359;51.402;6.778;2023-02-02T11:40:29;11.50;;;4.30;;
7783;SDS011;19359;51.402;6.778;2023-02-02T11:43:01;7.22;;;3.45;;
7783;SDS011;19359;51.402;6.778;2023-02-02T11:45:35;15.13;;;3.35;;
7783;SDS011;19359;51.402;6.778;2023-02-02T11:48:05;9.65;;;3.45;;
7783;SDS011;19359;51.402;6.778;2023-02-02T11:50:40;15.93;;;3.15;;
7783;SDS011;19359;51.402;6.778;2023-02-02T11:53:18;6.68;;;3.10;;
7783;SDS011;19359;51.402;6.778;2023-02-02T11:55:49;11.10;;;3.88;;
7783;SDS011;19359;51.402;6.778;2023-02-02T11:58:19;10.85;;;2.90;;
7783;SDS011;19359;51.402;6.778;2023-02-02T12:00:52;13.60;;;3.40;;
7783;SDS011;19359;51.402;6.778;2023-02-02T12:03:28;7.93;;;3.40;;
7783;SDS011;19359;51.402;6.778;2023-02-02T12:05:58;6.88;;;2.85;;
7783;SDS011;19359;51.402;6.778;2023-02-02T12:08:27;14.98;;;3.35;;
7783;SDS011;19359;51.402;6.778;2023-02-02T12:10:59;10.30;;;3.22;;
7783;SDS011;19359;51.402;6.778;2023-02-02T12:13:35;10.27;;;3.42;;
7783;SDS011;19359;51.402;6.778;2023-02-02T12:16:14;3.35;;;2.42;;
7783;SDS011;19359;51.402;6.778;2023-02-02T12:18:59;14.73;;;3.30;;
7783;SDS011;19359;51.402;6.778;2023-02-02T12:21:42;5.70;;;3.47;;
7783;SDS011;19359;51.402;6.778;2023-02-02T12:24:23;6.60;;;3.10;;
7783;SDS011;19359;51.402;6.778;2023-02-02T12:26:56;6.13;;;2.92;;
7783;SDS011;19359;51.402;6.778;2023-02-02T12:29:42;11.07;;;2.75;;
7783;SDS011;19359;51.402;6.778;2023-02-02T12:32:22;6.60;;;2.35;;
7783;SDS011;19359;51.402;6.778;2023-02-02T12:34:57;11.13;;;2.90;;
7783;SDS011;19359;51.402;6.778;2023-02-02T12:37:41;9.00;;;2.70;;
7783;SDS011;19359;51.402;6.778;2023-02-02T12:40:23;13.35;;;2.80;;
7783;SDS011;19359;51.402;6.778;2023-02-02T12:43:10;9.75;;;3.42;;
7783;SDS011;19359;51.402;6.778;2023-02-02T12:45:53;5.57;;;3.38;;
7783;SDS011;19359;51.402;6.778;2023-02-02T12:48:35;16.42;;;3.38;;
7783;SDS011;19359;51.402;6.778;2023-02-02T12:51:15;11.15;;;2.28;;
7783;SDS011;19359;51.402;6.778;2023-02-02T12:54:04;17.33;;;3.97;;
7783;SDS011;19359;51.402;6.778;2023-02-02T12:56:47;6.05;;;2.55;;
7783;SDS011;19359;51.402;6.778;2023-02-02T12:59:24;11.57;;;3.15;;
7783;SDS011;19359;51.402;6.778;2023-02-02T13:02:10;4.97;;;1.90;;
7783;SDS011;19359;51.402;6.778;2023-02-02T13:04:53;6.35;;;2.42;;
7783;SDS011;19359;51.402;6.778;2023-02-02T13:07:31;4.63;;;2.30;;
7783;SDS011;19359;51.402;6.778;2023-02-02T13:10:04;9.90;;;3.85;;
7783;SDS011;19359;51.402;6.778;2023-02-02T13:12:38;10.48;;;3.28;;
7783;SDS011;19359;51.402;6.778;2023-02-02T13:15:08;10.43;;;2.47;;
7783;SDS011;19359;51.402;6.778;2023-02-02T13:17:41;13.27;;;4.00;;
7783;SDS011;19359;51.402;6.778;2023-02-02T13:20:15;9.82;;;2.85;;
7783;SDS011;19359;51.402;6.778;2023-02-02T13:22:46;7.63;;;3.08;;
7783;SDS011;19359;51.402;6.778;2023-02-02T13:25:17;7.45;;;3.60;;
7783;SDS011;19359;51.402;6.778;2023-02-02T13:27:47;14.07;;;3.55;;
7783;SDS011;19359;51.402;6.778;2023-02-02T13:30:16;11.45;;;2.95;;
7783;SDS011;19359;51.402;6.778;2023-02-02T13:32:53;5.90;;;3.22;;
7783;SDS011;19359;51.402;6.778;2023-02-02T13:35:26;6.57;;;2.50;;
7783;SDS011;19359;51.402;6.778;2023-02-02T13:37:58;7.88;;;2.95;;
7783;SDS011;19359;51.402;6.778;2023-02-02T13:40:31;8.02;;;3.03;;
7783;SDS011;19359;51.402;6.778;2023-02-02T13:43:02;8.23;;;2.85;;
7783;SDS011;19359;51.402;6.778;2023-02-02T13:45:42;9.23;;;2.85;;
7783;SDS011;19359;51.402;6.778;2023-02-02T13:48:21;12.73;;;2.92;;
7783;SDS011;19359;51.402;6.778;2023-02-02T13:51:01;16.10;;;2.78;;
7783;SDS011;19359;51.402;6.778;2023-02-02T13:53:53;14.80;;;3.00;;
7783;SDS011;19359;51.402;6.778;2023-02-02T13:56:42;14.63;;;3.42;;
7783;SDS011;19359;51.402;6.778;2023-02-02T13:59:24;60.83;;;3.80;;
7783;SDS011;19359;51.402;6.778;2023-02-02T14:02:07;12.90;;;3.67;;
7783;SDS011;19359;51.402;6.778;2023-02-02T14:04:46;15.77;;;3.38;;
7783;SDS011;19359;51.402;6.778;2023-02-02T14:07:24;9.45;;;3.65;;
7783;SDS011;19359;51.402;6.778;2023-02-02T14:09:53;12.50;;;3.72;;
7783;SDS011;19359;51.402;6.778;2023-02-02T14:12:29;12.65;;;4.22;;
7783;SDS011;19359;51.402;6.778;2023-02-02T14:14:58;8.43;;;4.38;;
7783;SDS011;19359;51.402;6.778;2023-02-02T14:26:12;14.43;;;7.05;;
7783;SDS011;19359;51.402;6.778;2023-02-02T14:28:45;16.27;;;6.30;;
7783;SDS011;19359;51.402;6.778;2023-02-02T14:31:25;17.85;;;6.70;;
7783;SDS011;19359;51.402;6.778;2023-02-02T14:36:55;16.27;;;6.70;;
7783;SDS011;19359;51.402;6.778;2023-02-02T14:39:33;15.20;;;5.68;;
7783;SDS011;19359;51.402;6.778;2023-02-02T14:42:08;13.43;;;6.47;;
7783;SDS011;19359;51.402;6.778;2023-02-02T14:45:03;15.63;;;6.47;;
7783;SDS011;19359;51.402;6.778;2023-02-02T14:47:45;19.95;;;7.35;;
7783;SDS011;19359;51.402;6.778;2023-02-02T14:50:14;15.55;;;7.72;;
7783;SDS011;19359;51.402;6.778;2023-02-02T14:52:55;21.30;;;7.70;;
7783;SDS011;19359;51.402;6.778;2023-02-02T14:55:24;11.07;;;7.07;;
7783;SDS011;19359;51.402;6.778;2023-02-02T14:57:53;18.70;;;7.80;;
7783;SDS011;19359;51.402;6.778;2023-02-02T15:00:22;14.68;;;7.57;;
7783;SDS011;19359;51.402;6.778;2023-02-02T15:02:50;17.38;;;7.57;;
7783;SDS011;19359;51.402;6.778;2023-02-02T15:05:36;22.75;;;7.93;;
7783;SDS011;19359;51.402;6.778;2023-02-02T15:08:20;21.50;;;7.72;;
7783;SDS011;19359;51.402;6.778;2023-02-02T15:11:02;21.65;;;8.48;;
7783;SDS011;19359;51.402;6.778;2023-02-02T15:13:44;13.50;;;9.27;;
7783;SDS011;19359;51.402;6.778;2023-02-02T15:16:20;22.17;;;8.10;;
7783;SDS011;19359;51.402;6.778;2023-02-02T15:18:57;19.00;;;8.27;;
7783;SDS011;19359;51.402;6.778;2023-02-02T15:21:31;21.25;;;8.40;;
7783;SDS011;19359;51.402;6.778;2023-02-02T15:24:04;20.25;;;7.82;;
7783;SDS011;19359;51.402;6.778;2023-02-02T15:26:33;18.15;;;8.68;;
7783;SDS011;19359;51.402;6.778;2023-02-02T15:29:07;21.52;;;8.38;;
7783;SDS011;19359;51.402;6.778;2023-02-02T15:31:41;19.80;;;9.13;;
7783;SDS011;19359;51.402;6.778;2023-02-02T15:34:13;16.42;;;9.90;;
7783;SDS011;19359;51.402;6.778;2023-02-02T15:36:45;17.20;;;9.52;;